CCGS Louis S. St-Laurent — CGBN — position and weather

sailwx.info

Track history (hours):
 
Tides and Currents Weather Stations Pressure Air Temp Water Temp Dewpoint Dewpoint Depression Visibility Wind Speed Wind Dir Waves Ship Positions

Oceanographic research ship CCGS Louis S. St-Laurent (Canada)

Detailed information on ship capabilities available from ARCUS's ALIAS (Arctic Logistics Information and Support) project.

Last reported at 2017-Jan-24 18:00 UTC. Time now 2017-Jan-24 19:21 UTC.
Position N 47°36' W 052°42'.

Length 119.63 m; beam 24.38 m; draft 9.9 m.

MMSI: 316165000.

Wind from 260 at 7 knots

Barometer 1019.6 mb
Air temperature 0.1 ° C
Dewpoint -6.0 ° C

Date/timePositionNaut miles runAvg speedWind from/ knotsBaromVisibWave heightAir tempDewpointWater temp
2017-Jan-24 18:00N 47°36' W 052°42'0 0.0 260 / 71019.6 0.1-6.0
2017-Jan-24 17:00N 47°36' W 052°42'0 0.0 250 / 71019.5 -0.9-6.3
2017-Jan-24 16:00N 47°36' W 052°42'0 0.0 250 / 91019.3 -1.8-6.8
2017-Jan-24 15:00N 47°36' W 052°42'0 0.0 200 / 91019.8 -3.2-8.2
2017-Jan-24 14:00N 47°36' W 052°42'0 0.0 210 / 71020.1 -4.8-8.7
2017-Jan-24 13:00N 47°36' W 052°42'0 0.0 200 / 51020.3 -7.8-11.3
2017-Jan-24 12:00N 47°36' W 052°42'0 0.0 210 / 51020.6 -9.0-11.8
2017-Jan-24 11:00N 47°36' W 052°42'0 0.0 230 / 41020.5 -9.5-12.0
2017-Jan-24 10:00N 47°36' W 052°42'0 0.0 240 / 61020.0 -10.3-12.6
2017-Jan-24 09:00N 47°36' W 052°42'0 0.0 240 / 61019.8 -9.5-12.0
2017-Jan-24 08:00N 47°36' W 052°42'0 0.0 240 / 61020.3 -9.3-11.9
2017-Jan-24 07:00N 47°36' W 052°42'0 0.0 240 / 61019.4 -9.1-12.3
2017-Jan-24 06:00N 47°36' W 052°42'0 0.0 220 / 31019.0 -9.4-12.1
2017-Jan-24 05:00N 47°36' W 052°42'0 0.0 250 / 71019.2 -9.2-12.1
2017-Jan-24 04:00N 47°36' W 052°42'0 0.0 240 / 71019.1 -8.7-11.7
2017-Jan-24 03:00N 47°36' W 052°42'0 0.0 220 / 61018.7 -8.2-11.3
2017-Jan-24 02:00N 47°36' W 052°42'0 0.0 190 / 31017.9 -7.7-11.5
2017-Jan-24 01:00N 47°36' W 052°42'0 0.0 240 / 81017.5 -8.1-11.3
2017-Jan-23 23:00N 47°36' W 052°42'0 0.0 270 / 41016.6 -7.2-10.9
2017-Jan-23 22:00N 47°36' W 052°42'0 0.0 260 / 51015.8 -7.3-11.4
2017-Jan-23 21:00N 47°36' W 052°42'0 0.0 260 / 51015.0 -6.6-10.8
2017-Jan-23 20:00N 47°36' W 052°42'0 0.0 280 / 41014.1 -5.9-10.3
2017-Jan-23 19:00N 47°36' W 052°42'0 0.0 310 / 61013.0 -5.2-10.1
2017-Jan-23 18:00N 47°36' W 052°42'0 0.0 330 / 61012.1 -5.1-9.9
2017-Jan-23 17:00N 47°36' W 052°42'0 0.0 330 / 81011.4 -5.1-9.7
2017-Jan-23 16:00N 47°36' W 052°42'0 0.0 320 / 81011.1 -4.6-9.7
2017-Jan-23 15:00N 47°36' W 052°42'0 0.0 320 / 91010.9 -4.9-8.9
2017-Jan-23 14:00N 47°36' W 052°42'0 0.0 310 / 51010.7 -5.9-7.6
2017-Jan-23 13:00N 47°36' W 052°42'0 0.0 290 / 51010.4 -6.1-8.3
2017-Jan-23 12:00N 47°36' W 052°42'0 0.0 290 / 31009.5 -6.0-7.7
2017-Jan-23 11:00N 47°36' W 052°42'0 0.0 280 / 21009.1 -5.8-7.8
2017-Jan-23 10:00N 47°36' W 052°42'0 0.0 310 / 51008.8 -5.1-8.9
2017-Jan-23 09:00N 47°36' W 052°42'0 0.0 310 / 41008.5 -4.8-10.4
2017-Jan-23 08:00N 47°36' W 052°42'0 0.0 310 / 51008.0 -4.6-7.6
2017-Jan-23 07:00N 47°36' W 052°42'0 0.0 320 / 51007.9 -4.1-6.7
2017-Jan-23 06:00N 47°36' W 052°42'0 0.0 320 / 41007.8 -3.9-6.4
2017-Jan-23 05:00N 47°36' W 052°42'0 0.0 310 / 51007.6 -3.8-6.1
2017-Jan-23 04:00N 47°36' W 052°42'0 0.0 320 / 51007.5 -3.8-6.1
2017-Jan-23 03:00N 47°36' W 052°42'0 0.0 340 / 81007.8 -3.0-4.9
2017-Jan-23 02:00N 47°36' W 052°42'0 0.0 330 / 51007.8 -2.7-4.0
2017-Jan-23 01:00N 47°36' W 052°42'0 0.0 320 / 51007.4 -2.4-3.9
2017-Jan-23 00:00N 47°36' W 052°42'0 0.0 320 / 51006.9 -2.1-3.2
2017-Jan-22 23:00N 47°36' W 052°42'0 0.0 330 / 41006.2 -1.8-2.6
2017-Jan-22 22:00N 47°36' W 052°42'0 0.0 330 / 31005.4 -1.5-2.3
2017-Jan-22 21:00N 47°36' W 052°42'0 0.0 310 / 41004.9 -1.3-2.4
2017-Jan-22 20:00N 47°36' W 052°42'0 0.0 270 / 41004.3 -1.7-2.7
2017-Jan-22 19:00N 47°36' W 052°42'0 0.0 260 / 41003.6 -1.9-3.4
2017-Jan-22 18:00N 47°36' W 052°42'0 0.0 270 / 61002.9 -2.5-3.8
2017-Jan-22 17:00N 47°36' W 052°42'0 0.0 270 / 71002.5 -2.4-4.6
2017-Jan-22 16:00N 47°36' W 052°42'0 0.0 260 / 81002.6 -3.0-5.4
2017-Jan-22 15:00N 47°36' W 052°42'0 0.0 280 / 71002.9 -3.4-5.8
2017-Jan-22 14:00N 47°36' W 052°42'0 0.0 250 / 71002.6 -3.6-6.0
2017-Jan-22 13:00N 47°36' W 052°42'0 0.0 270 / 71002.2 -3.9-6.2
2017-Jan-22 12:00N 47°36' W 052°42'0 0.0 280 / 81001.8 -4.0-6.6
2017-Jan-22 11:00N 47°36' W 052°42'0 0.0 270 / 91001.1 -3.8-6.1
2017-Jan-22 10:00N 47°36' W 052°42'0 0.0 290 / 81000.2 -3.7-5.9
2017-Jan-22 09:00N 47°36' W 052°42'0 0.0 270 / 10999.6 -3.7-5.8
2017-Jan-22 08:00N 47°36' W 052°42'0 0.0 260 / 9999.0 -3.3-5.5
2017-Jan-22 07:00N 47°36' W 052°42'0 0.0 270 / 13998.2 -3.0-5.2
2017-Jan-22 06:00N 47°36' W 052°42'0 0.0 260 / 11997.8 -2.8-4.9
2017-Jan-22 05:00N 47°36' W 052°42'0 0.0 270 / 11996.8 -2.4-4.6
2017-Jan-22 04:00N 47°36' W 052°42'0 0.0 280 / 10996.0 -2.2-4.3
2017-Jan-22 03:00N 47°36' W 052°42'0 0.0 290 / 11995.4 -2.0-4.0
2017-Jan-22 02:00N 47°36' W 052°42'0 0.0 300 / 12994.2 -2.0-4.1
2017-Jan-22 01:00N 47°36' W 052°42'0 0.0 290 / 11994.0 -1.9-3.6
2017-Jan-22 00:00N 47°36' W 052°42'0 0.0 280 / 11993.2 -1.5-3.5
2017-Jan-21 23:00N 47°36' W 052°42'0 0.0 300 / 13992.0 -1.4-3.5
2017-Jan-21 22:00N 47°36' W 052°42'0 0.0 300 / 11991.1 -1.5-3.3
2017-Jan-21 21:00N 47°36' W 052°42'0 0.0 310 / 13990.0 -1.7-2.8
2017-Jan-21 20:00N 47°36' W 052°42'0 0.0 310 / 13989.0 -1.5-2.6
2017-Jan-21 19:00N 47°36' W 052°42'0 0.0 310 / 14988.0 -1.0-2.3
2017-Jan-21 18:00N 47°36' W 052°42'0 0.0 320 / 16987.2 -0.8-1.9
2017-Jan-21 17:00N 47°36' W 052°42'0 0.0 310 / 14986.9 -0.2-1.8
2017-Jan-21 16:00N 47°36' W 052°42'0 0.0 320 / 18987.3 -0.1-1.5
2017-Jan-21 15:00N 47°36' W 052°42'0 0.0 320 / 14988.1 -0.5-1.5
2017-Jan-21 14:00N 47°36' W 052°42'0 0.0 330 / 18988.9 -0.6-1.6
2017-Jan-21 13:00N 47°36' W 052°42'0 0.0 330 / 16989.2 -0.8-1.9
2017-Jan-21 12:00N 47°36' W 052°42'0 0.0 330 / 18990.2 -1.0-1.9
2017-Jan-21 11:00N 47°36' W 052°42'0 0.0 330 / 17991.1 -1.1-1.9
2017-Jan-21 10:00N 47°36' W 052°42'0 0.0 330 / 14992.1 -1.0-1.8
2017-Jan-21 09:00N 47°36' W 052°42'0 0.0 340 / 13993.1 -1.1-1.8
2017-Jan-21 08:00N 47°36' W 052°42'0 0.0 340 / 8994.1 -1.2-1.7
2017-Jan-21 07:00N 47°36' W 052°42'0 0.0 340 / 9995.5 -1.2-1.7
2017-Jan-21 06:00N 47°36' W 052°42'0 0.0 360 / 8997.0 -1.2-1.8
2017-Jan-21 05:00N 47°36' W 052°42'0 0.0 360 / 7998.2 -1.3-2.0
2017-Jan-21 04:00N 47°36' W 052°42'0 0.0 010 / 31000.3 -1.7-2.4
2017-Jan-21 03:00N 47°36' W 052°42'0 0.0 030 / 31002.5 -1.7-2.7
2017-Jan-21 02:00N 47°36' W 052°42'0 0.0 070 / 41004.5 -1.5-2.5
2017-Jan-21 01:00N 47°36' W 052°42'0 0.0 070 / 61006.0 -0.7-2.8
2017-Jan-21 00:00N 47°36' W 052°42'0 0.0 070 / 61007.4 -0.7-2.5
2017-Jan-20 23:00N 47°36' W 052°42'0 0.0 090 / 71008.7 -0.7-2.6
2017-Jan-20 22:00N 47°36' W 052°42'0 0.0 080 / 61009.9 -0.7-2.7
2017-Jan-20 21:00N 47°36' W 052°42'0 0.0 080 / 61010.7 -0.9-2.8
2017-Jan-20 20:00N 47°36' W 052°42'0 0.0 090 / 51010.9 -1.2-3.1
2017-Jan-20 19:00N 47°36' W 052°42'0 0.0 080 / 51011.5 -1.3-3.3
2017-Jan-20 18:00N 47°36' W 052°42'0 0.0 080 / 51012.2 -1.3-3.5
2017-Jan-20 16:00N 47°36' W 052°42'0 0.0 090 / 71013.8 -1.6-4.2
2017-Jan-20 15:00N 47°36' W 052°42'0 0.0 090 / 111015.4 -1.8-4.9
2017-Jan-20 14:00N 47°36' W 052°42'0 0.0 080 / 101016.7 -2.0-5.5
2017-Jan-20 13:00N 47°36' W 052°42'0 0.0 090 / 101017.0 -2.0-5.5
2017-Jan-20 12:00N 47°36' W 052°42'0 0.0 090 / 91017.0 -2.1-5.8
2017-Jan-20 11:00N 47°36' W 052°42'0 0.0 090 / 71017.4 -2.2-5.8
2017-Jan-20 10:00N 47°36' W 052°42'0 0.0 090 / 71017.5 -2.1-6.1
2017-Jan-20 09:00N 47°36' W 052°42'0 0.0 090 / 61017.6 -2.2-6.3
2017-Jan-20 08:00N 47°36' W 052°42'0 0.0 110 / 81018.3 -2.1-6.0
2017-Jan-20 07:00N 47°36' W 052°42'0 0.0 120 / 71018.6 -1.8-5.9
2017-Jan-20 06:00N 47°36' W 052°42'0 0.0 1018.4 -1.9-5.4
2017-Jan-20 05:00N 47°36' W 052°42'0 0.0 240 / 11018.4 -3.5-5.1
2017-Jan-20 04:00N 47°36' W 052°42'0 0.0 010 / 31018.7 -3.5-4.9
2017-Jan-20 03:00N 47°36' W 052°42'0 0.0 230 / 21019.3 -3.2-4.7
2017-Jan-20 02:00N 47°36' W 052°42'0 0.0 320 / 11019.7 -4.0-5.3
2017-Jan-20 01:00N 47°36' W 052°42'0 0.0 350 / 21020.1 -4.1-5.3
2017-Jan-20 00:00N 47°36' W 052°42'0 0.0 320 / 11020.2 -4.1-5.3
2017-Jan-19 23:00N 47°36' W 052°42'0 0.0 360 / 11020.4 -3.4-5.0
2017-Jan-19 22:00N 47°36' W 052°42'0 0.0 350 / 21020.3 -3.0-4.8
2017-Jan-19 21:00N 47°36' W 052°42'0 0.0 070 / 31019.9 -2.3-4.5
2017-Jan-19 20:00N 47°36' W 052°42'0 0.0 100 / 11019.8 -1.0-5.0
2017-Jan-19 19:00N 47°36' W 052°42'0 0.0 110 / 51020.0 -1.8-5.8
2017-Jan-19 18:00N 47°36' W 052°42'0 0.0 120 / 41019.8 -1.8-5.9
2017-Jan-19 17:00N 47°36' W 052°42'0 0.0 110 / 51020.1 -1.9-5.9
2017-Jan-19 16:00N 47°36' W 052°42'0 0.0 180 / 21020.3 -0.0-6.0
2017-Jan-19 15:00N 47°36' W 052°42'0 0.0 070 / 11021.0 -1.5-5.5
2017-Jan-19 14:00N 47°36' W 052°42'0 0.0 190 / 11021.7 -3.0-6.1
2017-Jan-19 13:00N 47°36' W 052°42'0 0.0 1021.7 -5.7-7.3
2017-Jan-19 12:00N 47°36' W 052°42'0 0.0 1021.7 -5.6-7.2
2017-Jan-19 11:00N 47°36' W 052°42'0 0.0 090 / 11021.4 -5.2-6.4
2017-Jan-19 10:00N 47°36' W 052°42'0 0.0 270 / 11021.1 -4.2-6.0
2017-Jan-19 09:00N 47°36' W 052°42'0 0.0 1020.8 -3.3-5.3
2017-Jan-19 08:00N 47°36' W 052°42'0 0.0 320 / 41021.0 -3.2-5.2
2017-Jan-19 07:00N 47°36' W 052°42'0 0.0 320 / 31020.9 -2.9-4.9
2017-Jan-19 06:00N 47°36' W 052°42'0 0.0 310 / 41020.5 -2.7-4.8
2017-Jan-19 05:00N 47°36' W 052°42'0 0.0 310 / 41020.3 -2.4-4.7
2017-Jan-19 04:00N 47°36' W 052°42'0 0.0 310 / 41020.3 -2.2-4.3
2017-Jan-19 03:00N 47°36' W 052°42'0 0.0 310 / 31020.3 -2.0-4.2
2017-Jan-19 02:00N 47°36' W 052°42'0 0.0 310 / 31020.5 -1.9-4.1
2017-Jan-19 01:00N 47°36' W 052°42'0 0.0 340 / 41020.4 -1.5-3.8
2017-Jan-19 00:00N 47°36' W 052°42'0 0.0 340 / 51020.2 -1.1-3.6
2017-Jan-18 23:00N 47°36' W 052°42'0 0.0 360 / 31019.7 -0.8-3.8
2017-Jan-18 22:00N 47°36' W 052°42'0 0.0 350 / 41019.2 -0.7-4.1
2017-Jan-18 21:00N 47°36' W 052°42'0 0.0 330 / 61019.0 -1.2-3.5
2017-Jan-18 20:00N 47°36' W 052°42'0 0.0 360 / 41018.6 -0.8-4.2
2017-Jan-18 18:00N 47°36' W 052°42'0 0.0 010 / 51017.0 -0.0-4.0
2017-Jan-18 17:00N 47°36' W 052°42'0 0.0 360 / 51016.3 0.1-3.1
2017-Jan-18 16:00N 47°36' W 052°42'0 0.0 360 / 61015.9 0.3-3.2
2017-Jan-18 15:00N 47°36' W 052°42'0 0.0 350 / 51015.2 0.2-2.2
2017-Jan-18 14:00N 47°36' W 052°42'0 0.0 360 / 51015.3 -1.0-1.9
2017-Jan-18 13:00N 47°36' W 052°42'0 0.0 030 / 21015.0 -1.2-2.7
2017-Jan-18 12:00N 47°36' W 052°42'0 0.0 090 / 41013.5 -1.9-2.8
2017-Jan-18 11:00N 47°36' W 052°42'0 0.0 300 / 21011.7 -2.9-3.9
2017-Jan-18 10:00N 47°36' W 052°42'0 0.0 270 / 41010.7 -3.5-6.4
2017-Jan-18 09:00N 47°36' W 052°42'0 0.0 320 / 61010.2 -3.1-6.2
2017-Jan-18 08:00N 47°36' W 052°42'0 0.0 290 / 41009.8 -3.7-6.0
2017-Jan-18 07:00N 47°36' W 052°42'0 0.0 320 / 41009.4 -4.0-6.0
2017-Jan-18 06:00N 47°36' W 052°42'0 0.0 300 / 51008.6 -4.2-6.1
2017-Jan-18 05:00N 47°36' W 052°42'0 0.0 310 / 51007.9 -3.9-5.7
2017-Jan-18 04:00N 47°36' W 052°42'0 0.0 270 / 31008.0 -4.3-6.0
2017-Jan-18 03:00N 47°36' W 052°42'0 0.0 280 / 41008.4 -5.2-7.0
2017-Jan-18 02:00N 47°36' W 052°42'0 0.0 260 / 31008.6 -5.8-7.9
2017-Jan-18 01:00N 47°36' W 052°42'0 0.0 260 / 41008.7 -5.6-8.1
2017-Jan-18 00:00N 47°36' W 052°42'0 0.0 260 / 41008.7 -5.0-7.0
2017-Jan-17 23:00N 47°36' W 052°42'0 0.0 250 / 41008.8 -5.1-7.9
2017-Jan-17 22:00N 47°36' W 052°42'0 0.0 270 / 41008.4 -4.4-8.4
2017-Jan-17 21:00N 47°36' W 052°42'0 0.0 280 / 41008.2 -3.1-7.3
2017-Jan-17 20:00N 47°36' W 052°42'0 0.0 280 / 41007.7 -2.0-5.0
2017-Jan-17 19:00N 47°36' W 052°42'0 0.0 310 / 41007.3 -1.4-3.7
2017-Jan-17 18:00N 47°36' W 052°42'0 0.0 270 / 61007.0 -0.7-3.1
2017-Jan-17 17:00N 47°36' W 052°42'0 0.0 260 / 81007.1 -0.0-3.8
2017-Jan-17 16:00N 47°36' W 052°42'0 0.0 220 / 51007.7 -0.0-2.7
2017-Jan-17 15:00N 47°36' W 052°42'0 0.0 200 / 41008.7 -1.3-2.1
2017-Jan-17 14:00N 47°36' W 052°42'0 0.0 140 / 11009.2 -0.6-2.0
2017-Jan-17 13:00N 47°36' W 052°42'0 0.0 180 / 21010.6 -1.6-3.2
2017-Jan-17 12:00N 47°36' W 052°42'0 0.0 200 / 21011.9 -2.2-4.5
2017-Jan-17 11:00N 47°36' W 052°42'0 0.0 210 / 11013.0 -3.0-5.5
2017-Jan-17 10:00N 47°36' W 052°42'0 0.0 210 / 21014.2 -3.8-6.1
2017-Jan-17 09:00N 47°36' W 052°42'0 0.0 210 / 11015.6 -5.1-7.5
2017-Jan-17 08:00N 47°36' W 052°42'0 0.0 210 / 11016.3 -6.1-8.3
2017-Jan-17 07:00N 47°36' W 052°42'0 0.0 240 / 11017.9 -10.0-12.4
2017-Jan-17 06:00N 47°36' W 052°42'0 0.0 200 / 21018.8 -12.2-15.1
2017-Jan-17 05:00N 47°36' W 052°42'0 0.0 200 / 31019.8 -12.5-15.0
2017-Jan-17 03:00N 47°36' W 052°42'0 0.0 230 / 61021.4 -12.5-15.8
2017-Jan-17 02:00N 47°36' W 052°42'0 0.0 220 / 31022.0 -12.8-15.4
2017-Jan-17 01:00N 47°36' W 052°42'0 0.0 240 / 51022.3 -12.0-14.5
2017-Jan-17 00:00N 47°36' W 052°42'0 0.0 190 / 41022.5 -10.1-12.6
2017-Jan-16 23:00N 47°36' W 052°42'0 0.0 280 / 31022.8 -9.7-14.0
2017-Jan-16 22:00N 47°36' W 052°42'0 0.0 270 / 51022.9 -9.4-13.4
2017-Jan-16 21:00N 47°36' W 052°42'0 0.0 290 / 41022.9 -9.4-13.3
2017-Jan-16 20:00N 47°36' W 052°42'0 0.0 280 / 51022.5 -9.1-13.3
2017-Jan-16 19:00N 47°36' W 052°42'0 0.0 310 / 71021.5 -8.7-13.5
2017-Jan-16 18:00N 47°36' W 052°42'0 0.0 330 / 91021.0 -8.5-13.1
2017-Jan-16 17:00N 47°36' W 052°42'0 0.0 310 / 81020.4 -8.5-12.5
2017-Jan-16 16:00N 47°36' W 052°42'0 0.0 320 / 81020.5 -8.4-12.7
2017-Jan-16 15:00N 47°36' W 052°42'0 0.0 320 / 101020.4 -8.4-12.1
2017-Jan-16 14:00N 47°36' W 052°42'0 0.0 320 / 81020.3 -8.1-12.3
2017-Jan-16 13:00N 47°36' W 052°42'0 0.0 320 / 81019.6 -8.5-11.9
2017-Jan-16 12:00N 47°36' W 052°42'0 0.0 320 / 91019.0 -8.5-11.6
2017-Jan-16 11:00N 47°36' W 052°42'0 0.0 320 / 81017.9 -8.2-11.2
2017-Jan-16 10:00N 47°36' W 052°42'0 0.0 310 / 101016.6 -7.5-10.0
2017-Jan-16 09:00N 47°36' W 052°42'0 0.0 320 / 111015.1 -6.5-8.0
2017-Jan-16 08:00N 47°36' W 052°42'0 0.0 320 / 131014.0 -5.6-6.8
2017-Jan-16 07:00N 47°36' W 052°42'0 0.0 320 / 111012.7 -5.9-6.4
2017-Jan-16 06:00N 47°36' W 052°42'0 0.0 330 / 141011.5 -5.6-6.0
2017-Jan-16 05:00N 47°36' W 052°42'0 0.0 340 / 111010.1 -4.6-4.9
2017-Jan-16 04:00N 47°36' W 052°42'0 0.0 060 / 21010.1 -3.8-4.0
2017-Jan-16 03:00N 47°36' W 052°42'0 0.0 080 / 41011.2 -3.0-3.2
2017-Jan-16 02:00N 47°36' W 052°42'0 0.0 070 / 31012.4 -3.4-3.8
2017-Jan-16 01:00N 47°36' W 052°42'0 0.0 030 / 31013.2 -4.1-5.1
2017-Jan-16 00:00N 47°36' W 052°42'0 0.0 360 / 31014.7 -4.7-5.8
2017-Jan-15 23:00N 47°36' W 052°42'0 0.0 240 / 11015.6 -4.6-6.0
2017-Jan-15 22:00N 47°36' W 052°42'0 0.0 240 / 21016.1 -4.5-6.6
2017-Jan-15 21:00N 47°36' W 052°42'0 0.0 200 / 11016.4 -4.1-6.7
2017-Jan-15 20:00N 47°36' W 052°42'0 0.0 200 / 31016.3 -3.7-6.7
2017-Jan-15 19:00N 47°36' W 052°42'0 0.0 190 / 31016.6 -4.0-6.9
2017-Jan-15 18:00N 47°36' W 052°42'0 0.0 220 / 71016.6 -3.9-8.8
2017-Jan-15 17:00N 47°36' W 052°42'0 0.0 190 / 61016.8 -3.8-7.8
2017-Jan-15 16:00N 47°36' W 052°42'0 0.0 210 / 31017.9 -4.8-8.0
2017-Jan-15 15:00N 47°36' W 052°42'0 0.0 130 / 21019.0 -5.4-10.3
2017-Jan-15 14:00N 47°36' W 052°42'0 0.0 200 / 21020.3 -7.0-12.5
2017-Jan-15 13:00N 47°36' W 052°42'0 0.0 220 / 31020.7 -8.2-12.6
2017-Jan-15 11:00N 47°36' W 052°42'0 0.0 220 / 31020.7 -8.4-12.7
2017-Jan-15 10:00N 47°36' W 052°42'0 0.0 210 / 31020.7 -8.4-12.8
2017-Jan-15 09:00N 47°36' W 052°42'0 0.0 240 / 51020.5 -9.0-13.2
2017-Jan-15 08:00N 47°36' W 052°42'0 0.0 240 / 41020.4 -8.6-13.1
2017-Jan-15 07:00N 47°36' W 052°42'0 0.0 240 / 41020.1 -8.6-13.9
2017-Jan-15 06:00N 47°36' W 052°42'0 0.0 260 / 61020.3 -8.7-14.3
2017-Jan-15 05:00N 47°36' W 052°42'0 0.0 270 / 51020.1 -9.5-15.8
2017-Jan-15 04:00N 47°36' W 052°42'0 0.0 260 / 91020.1 -9.5-15.7
2017-Jan-15 03:00N 47°36' W 052°42'0 0.0 280 / 101020.1 -9.8-16.4
2017-Jan-15 02:00N 47°36' W 052°42'0 0.0 280 / 101020.2 -10.4-17.0
2017-Jan-15 01:00N 47°36' W 052°42'0 0.0 280 / 81019.8 -10.5-17.2
2017-Jan-15 00:00N 47°36' W 052°42'0 0.0 280 / 121019.1 -10.5-17.6
2017-Jan-14 23:00N 47°36' W 052°42'0 0.0 270 / 111018.8 -9.9-16.8
2017-Jan-14 22:00N 47°36' W 052°42'0 0.0 260 / 91018.1 -10.0-16.9
2017-Jan-14 21:00N 47°36' W 052°42'0 0.0 290 / 101017.4 -9.6-17.3
2017-Jan-14 20:00N 47°36' W 052°42'0 0.0 270 / 101016.5 -9.1-17.2
2017-Jan-14 19:00N 47°36' W 052°42'0 0.0 270 / 111015.7 -8.5-16.7
2017-Jan-14 18:00N 47°36' W 052°42'   290 / 131015.0 -8.7-16.7
Track history (hours):
 
Tides and Currents Weather Stations Pressure Air Temp Water Temp Dewpoint Dewpoint Depression Visibility Wind Speed Wind Dir Waves Ship Positions

Oceanographic research ship CCGS Louis S. St-Laurent (Canada)

Detailed information on ship capabilities available from ARCUS's ALIAS (Arctic Logistics Information and Support) project.

Last reported at 2017-Jan-24 18:00 UTC. Time now 2017-Jan-24 19:21 UTC.
Position N 47°36' W 052°42'.

Length 119.63 m; beam 24.38 m; draft 9.9 m.

MMSI: 316165000.

Wind from 260 at 7 knots

Barometer 1019.6 mb
Air temperature 0.1 ° C
Dewpoint -6.0 ° C

Date/timePositionNaut miles runAvg speedWind from/ knotsBaromVisibWave heightAir tempDewpointWater temp
2017-Jan-24 18:00N 47°36' W 052°42'0 0.0 260 / 71019.6 0.1-6.0
2017-Jan-24 17:00N 47°36' W 052°42'0 0.0 250 / 71019.5 -0.9-6.3
2017-Jan-24 16:00N 47°36' W 052°42'0 0.0 250 / 91019.3 -1.8-6.8
2017-Jan-24 15:00N 47°36' W 052°42'0 0.0 200 / 91019.8 -3.2-8.2
2017-Jan-24 14:00N 47°36' W 052°42'0 0.0 210 / 71020.1 -4.8-8.7
2017-Jan-24 13:00N 47°36' W 052°42'0 0.0 200 / 51020.3 -7.8-11.3
2017-Jan-24 12:00N 47°36' W 052°42'0 0.0 210 / 51020.6 -9.0-11.8
2017-Jan-24 11:00N 47°36' W 052°42'0 0.0 230 / 41020.5 -9.5-12.0
2017-Jan-24 10:00N 47°36' W 052°42'0 0.0 240 / 61020.0 -10.3-12.6
2017-Jan-24 09:00N 47°36' W 052°42'0 0.0 240 / 61019.8 -9.5-12.0
2017-Jan-24 08:00N 47°36' W 052°42'0 0.0 240 / 61020.3 -9.3-11.9
2017-Jan-24 07:00N 47°36' W 052°42'0 0.0 240 / 61019.4 -9.1-12.3
2017-Jan-24 06:00N 47°36' W 052°42'0 0.0 220 / 31019.0 -9.4-12.1
2017-Jan-24 05:00N 47°36' W 052°42'0 0.0 250 / 71019.2 -9.2-12.1
2017-Jan-24 04:00N 47°36' W 052°42'0 0.0 240 / 71019.1 -8.7-11.7
2017-Jan-24 03:00N 47°36' W 052°42'0 0.0 220 / 61018.7 -8.2-11.3
2017-Jan-24 02:00N 47°36' W 052°42'0 0.0 190 / 31017.9 -7.7-11.5
2017-Jan-24 01:00N 47°36' W 052°42'0 0.0 240 / 81017.5 -8.1-11.3
2017-Jan-23 23:00N 47°36' W 052°42'0 0.0 270 / 41016.6 -7.2-10.9
2017-Jan-23 22:00N 47°36' W 052°42'0 0.0 260 / 51015.8 -7.3-11.4
2017-Jan-23 21:00N 47°36' W 052°42'0 0.0 260 / 51015.0 -6.6-10.8
2017-Jan-23 20:00N 47°36' W 052°42'0 0.0 280 / 41014.1 -5.9-10.3
2017-Jan-23 19:00N 47°36' W 052°42'0 0.0 310 / 61013.0 -5.2-10.1
2017-Jan-23 18:00N 47°36' W 052°42'0 0.0 330 / 61012.1 -5.1-9.9
2017-Jan-23 17:00N 47°36' W 052°42'0 0.0 330 / 81011.4 -5.1-9.7
2017-Jan-23 16:00N 47°36' W 052°42'0 0.0 320 / 81011.1 -4.6-9.7
2017-Jan-23 15:00N 47°36' W 052°42'0 0.0 320 / 91010.9 -4.9-8.9
2017-Jan-23 14:00N 47°36' W 052°42'0 0.0 310 / 51010.7 -5.9-7.6
2017-Jan-23 13:00N 47°36' W 052°42'0 0.0 290 / 51010.4 -6.1-8.3
2017-Jan-23 12:00N 47°36' W 052°42'0 0.0 290 / 31009.5 -6.0-7.7
2017-Jan-23 11:00N 47°36' W 052°42'0 0.0 280 / 21009.1 -5.8-7.8
2017-Jan-23 10:00N 47°36' W 052°42'0 0.0 310 / 51008.8 -5.1-8.9
2017-Jan-23 09:00N 47°36' W 052°42'0 0.0 310 / 41008.5 -4.8-10.4
2017-Jan-23 08:00N 47°36' W 052°42'0 0.0 310 / 51008.0 -4.6-7.6
2017-Jan-23 07:00N 47°36' W 052°42'0 0.0 320 / 51007.9 -4.1-6.7
2017-Jan-23 06:00N 47°36' W 052°42'0 0.0 320 / 41007.8 -3.9-6.4
2017-Jan-23 05:00N 47°36' W 052°42'0 0.0 310 / 51007.6 -3.8-6.1
2017-Jan-23 04:00N 47°36' W 052°42'0 0.0 320 / 51007.5 -3.8-6.1
2017-Jan-23 03:00N 47°36' W 052°42'0 0.0 340 / 81007.8 -3.0-4.9
2017-Jan-23 02:00N 47°36' W 052°42'0 0.0 330 / 51007.8 -2.7-4.0
2017-Jan-23 01:00N 47°36' W 052°42'0 0.0 320 / 51007.4 -2.4-3.9
2017-Jan-23 00:00N 47°36' W 052°42'0 0.0 320 / 51006.9 -2.1-3.2
2017-Jan-22 23:00N 47°36' W 052°42'0 0.0 330 / 41006.2 -1.8-2.6
2017-Jan-22 22:00N 47°36' W 052°42'0 0.0 330 / 31005.4 -1.5-2.3
2017-Jan-22 21:00N 47°36' W 052°42'0 0.0 310 / 41004.9 -1.3-2.4
2017-Jan-22 20:00N 47°36' W 052°42'0 0.0 270 / 41004.3 -1.7-2.7
2017-Jan-22 19:00N 47°36' W 052°42'0 0.0 260 / 41003.6 -1.9-3.4
2017-Jan-22 18:00N 47°36' W 052°42'0 0.0 270 / 61002.9 -2.5-3.8
2017-Jan-22 17:00N 47°36' W 052°42'0 0.0 270 / 71002.5 -2.4-4.6
2017-Jan-22 16:00N 47°36' W 052°42'0 0.0 260 / 81002.6 -3.0-5.4
2017-Jan-22 15:00N 47°36' W 052°42'0 0.0 280 / 71002.9 -3.4-5.8
2017-Jan-22 14:00N 47°36' W 052°42'0 0.0 250 / 71002.6 -3.6-6.0
2017-Jan-22 13:00N 47°36' W 052°42'0 0.0 270 / 71002.2 -3.9-6.2
2017-Jan-22 12:00N 47°36' W 052°42'0 0.0 280 / 81001.8 -4.0-6.6
2017-Jan-22 11:00N 47°36' W 052°42'0 0.0 270 / 91001.1 -3.8-6.1
2017-Jan-22 10:00N 47°36' W 052°42'0 0.0 290 / 81000.2 -3.7-5.9
2017-Jan-22 09:00N 47°36' W 052°42'0 0.0 270 / 10999.6 -3.7-5.8
2017-Jan-22 08:00N 47°36' W 052°42'0 0.0 260 / 9999.0 -3.3-5.5
2017-Jan-22 07:00N 47°36' W 052°42'0 0.0 270 / 13998.2 -3.0-5.2
2017-Jan-22 06:00N 47°36' W 052°42'0 0.0 260 / 11997.8 -2.8-4.9
2017-Jan-22 05:00N 47°36' W 052°42'0 0.0 270 / 11996.8 -2.4-4.6
2017-Jan-22 04:00N 47°36' W 052°42'0 0.0 280 / 10996.0 -2.2-4.3
2017-Jan-22 03:00N 47°36' W 052°42'0 0.0 290 / 11995.4 -2.0-4.0
2017-Jan-22 02:00N 47°36' W 052°42'0 0.0 300 / 12994.2 -2.0-4.1
2017-Jan-22 01:00N 47°36' W 052°42'0 0.0 290 / 11994.0 -1.9-3.6
2017-Jan-22 00:00N 47°36' W 052°42'0 0.0 280 / 11993.2 -1.5-3.5
2017-Jan-21 23:00N 47°36' W 052°42'0 0.0 300 / 13992.0 -1.4-3.5
2017-Jan-21 22:00N 47°36' W 052°42'0 0.0 300 / 11991.1 -1.5-3.3
2017-Jan-21 21:00N 47°36' W 052°42'0 0.0 310 / 13990.0 -1.7-2.8
2017-Jan-21 20:00N 47°36' W 052°42'0 0.0 310 / 13989.0 -1.5-2.6
2017-Jan-21 19:00N 47°36' W 052°42'0 0.0 310 / 14988.0 -1.0-2.3
2017-Jan-21 18:00N 47°36' W 052°42'0 0.0 320 / 16987.2 -0.8-1.9
2017-Jan-21 17:00N 47°36' W 052°42'0 0.0 310 / 14986.9 -0.2-1.8
2017-Jan-21 16:00N 47°36' W 052°42'0 0.0 320 / 18987.3 -0.1-1.5
2017-Jan-21 15:00N 47°36' W 052°42'0 0.0 320 / 14988.1 -0.5-1.5
2017-Jan-21 14:00N 47°36' W 052°42'0 0.0 330 / 18988.9 -0.6-1.6
2017-Jan-21 13:00N 47°36' W 052°42'0 0.0 330 / 16989.2 -0.8-1.9
2017-Jan-21 12:00N 47°36' W 052°42'0 0.0 330 / 18990.2 -1.0-1.9
2017-Jan-21 11:00N 47°36' W 052°42'0 0.0 330 / 17991.1 -1.1-1.9
2017-Jan-21 10:00N 47°36' W 052°42'0 0.0 330 / 14992.1 -1.0-1.8
2017-Jan-21 09:00N 47°36' W 052°42'0 0.0 340 / 13993.1 -1.1-1.8
2017-Jan-21 08:00N 47°36' W 052°42'0 0.0 340 / 8994.1 -1.2-1.7
2017-Jan-21 07:00N 47°36' W 052°42'0 0.0 340 / 9995.5 -1.2-1.7
2017-Jan-21 06:00N 47°36' W 052°42'0 0.0 360 / 8997.0 -1.2-1.8
2017-Jan-21 05:00N 47°36' W 052°42'0 0.0 360 / 7998.2 -1.3-2.0
2017-Jan-21 04:00N 47°36' W 052°42'0 0.0 010 / 31000.3 -1.7-2.4
2017-Jan-21 03:00N 47°36' W 052°42'0 0.0 030 / 31002.5 -1.7-2.7
2017-Jan-21 02:00N 47°36' W 052°42'0 0.0 070 / 41004.5 -1.5-2.5
2017-Jan-21 01:00N 47°36' W 052°42'0 0.0 070 / 61006.0 -0.7-2.8
2017-Jan-21 00:00N 47°36' W 052°42'0 0.0 070 / 61007.4 -0.7-2.5
2017-Jan-20 23:00N 47°36' W 052°42'0 0.0 090 / 71008.7 -0.7-2.6
2017-Jan-20 22:00N 47°36' W 052°42'0 0.0 080 / 61009.9 -0.7-2.7
2017-Jan-20 21:00N 47°36' W 052°42'0 0.0 080 / 61010.7 -0.9-2.8
2017-Jan-20 20:00N 47°36' W 052°42'0 0.0 090 / 51010.9 -1.2-3.1
2017-Jan-20 19:00N 47°36' W 052°42'0 0.0 080 / 51011.5 -1.3-3.3
2017-Jan-20 18:00N 47°36' W 052°42'0 0.0 080 / 51012.2 -1.3-3.5
2017-Jan-20 16:00N 47°36' W 052°42'0 0.0 090 / 71013.8 -1.6-4.2
2017-Jan-20 15:00N 47°36' W 052°42'0 0.0 090 / 111015.4 -1.8-4.9
2017-Jan-20 14:00N 47°36' W 052°42'0 0.0 080 / 101016.7 -2.0-5.5
2017-Jan-20 13:00N 47°36' W 052°42'0 0.0 090 / 101017.0 -2.0-5.5
2017-Jan-20 12:00N 47°36' W 052°42'0 0.0 090 / 91017.0 -2.1-5.8
2017-Jan-20 11:00N 47°36' W 052°42'0 0.0 090 / 71017.4 -2.2-5.8
2017-Jan-20 10:00N 47°36' W 052°42'0 0.0 090 / 71017.5 -2.1-6.1
2017-Jan-20 09:00N 47°36' W 052°42'0 0.0 090 / 61017.6 -2.2-6.3
2017-Jan-20 08:00N 47°36' W 052°42'0 0.0 110 / 81018.3 -2.1-6.0
2017-Jan-20 07:00N 47°36' W 052°42'0 0.0 120 / 71018.6 -1.8-5.9
2017-Jan-20 06:00N 47°36' W 052°42'0 0.0 1018.4 -1.9-5.4
2017-Jan-20 05:00N 47°36' W 052°42'0 0.0 240 / 11018.4 -3.5-5.1
2017-Jan-20 04:00N 47°36' W 052°42'0 0.0 010 / 31018.7 -3.5-4.9
2017-Jan-20 03:00N 47°36' W 052°42'0 0.0 230 / 21019.3 -3.2-4.7
2017-Jan-20 02:00N 47°36' W 052°42'0 0.0 320 / 11019.7 -4.0-5.3
2017-Jan-20 01:00N 47°36' W 052°42'0 0.0 350 / 21020.1 -4.1-5.3
2017-Jan-20 00:00N 47°36' W 052°42'0 0.0 320 / 11020.2 -4.1-5.3
2017-Jan-19 23:00N 47°36' W 052°42'0 0.0 360 / 11020.4 -3.4-5.0
2017-Jan-19 22:00N 47°36' W 052°42'0 0.0 350 / 21020.3 -3.0-4.8
2017-Jan-19 21:00N 47°36' W 052°42'0 0.0 070 / 31019.9 -2.3-4.5
2017-Jan-19 20:00N 47°36' W 052°42'0 0.0 100 / 11019.8 -1.0-5.0
2017-Jan-19 19:00N 47°36' W 052°42'0 0.0 110 / 51020.0 -1.8-5.8
2017-Jan-19 18:00N 47°36' W 052°42'0 0.0 120 / 41019.8 -1.8-5.9
2017-Jan-19 17:00N 47°36' W 052°42'0 0.0 110 / 51020.1 -1.9-5.9
2017-Jan-19 16:00N 47°36' W 052°42'0 0.0 180 / 21020.3 -0.0-6.0
2017-Jan-19 15:00N 47°36' W 052°42'0 0.0 070 / 11021.0 -1.5-5.5
2017-Jan-19 14:00N 47°36' W 052°42'0 0.0 190 / 11021.7 -3.0-6.1
2017-Jan-19 13:00N 47°36' W 052°42'0 0.0 1021.7 -5.7-7.3
2017-Jan-19 12:00N 47°36' W 052°42'0 0.0 1021.7 -5.6-7.2
2017-Jan-19 11:00N 47°36' W 052°42'0 0.0 090 / 11021.4 -5.2-6.4
2017-Jan-19 10:00N 47°36' W 052°42'0 0.0 270 / 11021.1 -4.2-6.0
2017-Jan-19 09:00N 47°36' W 052°42'0 0.0 1020.8 -3.3-5.3
2017-Jan-19 08:00N 47°36' W 052°42'0 0.0 320 / 41021.0 -3.2-5.2
2017-Jan-19 07:00N 47°36' W 052°42'0 0.0 320 / 31020.9 -2.9-4.9
2017-Jan-19 06:00N 47°36' W 052°42'0 0.0 310 / 41020.5 -2.7-4.8
2017-Jan-19 05:00N 47°36' W 052°42'0 0.0 310 / 41020.3 -2.4-4.7
2017-Jan-19 04:00N 47°36' W 052°42'0 0.0 310 / 41020.3 -2.2-4.3
2017-Jan-19 03:00N 47°36' W 052°42'0 0.0 310 / 31020.3 -2.0-4.2
2017-Jan-19 02:00N 47°36' W 052°42'0 0.0 310 / 31020.5 -1.9-4.1
2017-Jan-19 01:00N 47°36' W 052°42'0 0.0 340 / 41020.4 -1.5-3.8
2017-Jan-19 00:00N 47°36' W 052°42'0 0.0 340 / 51020.2 -1.1-3.6
2017-Jan-18 23:00N 47°36' W 052°42'0 0.0 360 / 31019.7 -0.8-3.8
2017-Jan-18 22:00N 47°36' W 052°42'0 0.0 350 / 41019.2 -0.7-4.1
2017-Jan-18 21:00N 47°36' W 052°42'0 0.0 330 / 61019.0 -1.2-3.5
2017-Jan-18 20:00N 47°36' W 052°42'0 0.0 360 / 41018.6 -0.8-4.2
2017-Jan-18 18:00N 47°36' W 052°42'0 0.0 010 / 51017.0 -0.0-4.0
2017-Jan-18 17:00N 47°36' W 052°42'0 0.0 360 / 51016.3 0.1-3.1
2017-Jan-18 16:00N 47°36' W 052°42'0 0.0 360 / 61015.9 0.3-3.2
2017-Jan-18 15:00N 47°36' W 052°42'0 0.0 350 / 51015.2 0.2-2.2
2017-Jan-18 14:00N 47°36' W 052°42'0 0.0 360 / 51015.3 -1.0-1.9
2017-Jan-18 13:00N 47°36' W 052°42'0 0.0 030 / 21015.0 -1.2-2.7
2017-Jan-18 12:00N 47°36' W 052°42'0 0.0 090 / 41013.5 -1.9-2.8
2017-Jan-18 11:00N 47°36' W 052°42'0 0.0 300 / 21011.7 -2.9-3.9
2017-Jan-18 10:00N 47°36' W 052°42'0 0.0 270 / 41010.7 -3.5-6.4
2017-Jan-18 09:00N 47°36' W 052°42'0 0.0 320 / 61010.2 -3.1-6.2
2017-Jan-18 08:00N 47°36' W 052°42'0 0.0 290 / 41009.8 -3.7-6.0
2017-Jan-18 07:00N 47°36' W 052°42'0 0.0 320 / 41009.4 -4.0-6.0
2017-Jan-18 06:00N 47°36' W 052°42'0 0.0 300 / 51008.6 -4.2-6.1
2017-Jan-18 05:00N 47°36' W 052°42'0 0.0 310 / 51007.9 -3.9-5.7
2017-Jan-18 04:00N 47°36' W 052°42'0 0.0 270 / 31008.0 -4.3-6.0
2017-Jan-18 03:00N 47°36' W 052°42'0 0.0 280 / 41008.4 -5.2-7.0
2017-Jan-18 02:00N 47°36' W 052°42'0 0.0 260 / 31008.6 -5.8-7.9
2017-Jan-18 01:00N 47°36' W 052°42'0 0.0 260 / 41008.7 -5.6-8.1
2017-Jan-18 00:00N 47°36' W 052°42'0 0.0 260 / 41008.7 -5.0-7.0
2017-Jan-17 23:00N 47°36' W 052°42'0 0.0 250 / 41008.8 -5.1-7.9
2017-Jan-17 22:00N 47°36' W 052°42'0 0.0 270 / 41008.4 -4.4-8.4
2017-Jan-17 21:00N 47°36' W 052°42'0 0.0 280 / 41008.2 -3.1-7.3
2017-Jan-17 20:00N 47°36' W 052°42'0 0.0 280 / 41007.7 -2.0-5.0
2017-Jan-17 19:00N 47°36' W 052°42'0 0.0 310 / 41007.3 -1.4-3.7
2017-Jan-17 18:00N 47°36' W 052°42'0 0.0 270 / 61007.0 -0.7-3.1
2017-Jan-17 17:00N 47°36' W 052°42'0 0.0 260 / 81007.1 -0.0-3.8
2017-Jan-17 16:00N 47°36' W 052°42'0 0.0 220 / 51007.7 -0.0-2.7
2017-Jan-17 15:00N 47°36' W 052°42'0 0.0 200 / 41008.7 -1.3-2.1
2017-Jan-17 14:00N 47°36' W 052°42'0 0.0 140 / 11009.2 -0.6-2.0
2017-Jan-17 13:00N 47°36' W 052°42'0 0.0 180 / 21010.6 -1.6-3.2
2017-Jan-17 12:00N 47°36' W 052°42'0 0.0 200 / 21011.9 -2.2-4.5
2017-Jan-17 11:00N 47°36' W 052°42'0 0.0 210 / 11013.0 -3.0-5.5
2017-Jan-17 10:00N 47°36' W 052°42'0 0.0 210 / 21014.2 -3.8-6.1
2017-Jan-17 09:00N 47°36' W 052°42'0 0.0 210 / 11015.6 -5.1-7.5
2017-Jan-17 08:00N 47°36' W 052°42'0 0.0 210 / 11016.3 -6.1-8.3
2017-Jan-17 07:00N 47°36' W 052°42'0 0.0 240 / 11017.9 -10.0-12.4
2017-Jan-17 06:00N 47°36' W 052°42'0 0.0 200 / 21018.8 -12.2-15.1
2017-Jan-17 05:00N 47°36' W 052°42'0 0.0 200 / 31019.8 -12.5-15.0
2017-Jan-17 03:00N 47°36' W 052°42'0 0.0 230 / 61021.4 -12.5-15.8
2017-Jan-17 02:00N 47°36' W 052°42'0 0.0 220 / 31022.0 -12.8-15.4
2017-Jan-17 01:00N 47°36' W 052°42'0 0.0 240 / 51022.3 -12.0-14.5
2017-Jan-17 00:00N 47°36' W 052°42'0 0.0 190 / 41022.5 -10.1-12.6
2017-Jan-16 23:00N 47°36' W 052°42'0 0.0 280 / 31022.8 -9.7-14.0
2017-Jan-16 22:00N 47°36' W 052°42'0 0.0 270 / 51022.9 -9.4-13.4
2017-Jan-16 21:00N 47°36' W 052°42'0 0.0 290 / 41022.9 -9.4-13.3
2017-Jan-16 20:00N 47°36' W 052°42'0 0.0 280 / 51022.5 -9.1-13.3
2017-Jan-16 19:00N 47°36' W 052°42'0 0.0 310 / 71021.5 -8.7-13.5
2017-Jan-16 18:00N 47°36' W 052°42'0 0.0 330 / 91021.0 -8.5-13.1
2017-Jan-16 17:00N 47°36' W 052°42'0 0.0 310 / 81020.4 -8.5-12.5
2017-Jan-16 16:00N 47°36' W 052°42'0 0.0 320 / 81020.5 -8.4-12.7
2017-Jan-16 15:00N 47°36' W 052°42'0 0.0 320 / 101020.4 -8.4-12.1
2017-Jan-16 14:00N 47°36' W 052°42'0 0.0 320 / 81020.3 -8.1-12.3
2017-Jan-16 13:00N 47°36' W 052°42'0 0.0 320 / 81019.6 -8.5-11.9
2017-Jan-16 12:00N 47°36' W 052°42'0 0.0 320 / 91019.0 -8.5-11.6
2017-Jan-16 11:00N 47°36' W 052°42'0 0.0 320 / 81017.9 -8.2-11.2
2017-Jan-16 10:00N 47°36' W 052°42'0 0.0 310 / 101016.6 -7.5-10.0
2017-Jan-16 09:00N 47°36' W 052°42'0 0.0 320 / 111015.1 -6.5-8.0
2017-Jan-16 08:00N 47°36' W 052°42'0 0.0 320 / 131014.0 -5.6-6.8
2017-Jan-16 07:00N 47°36' W 052°42'0 0.0 320 / 111012.7 -5.9-6.4
2017-Jan-16 06:00N 47°36' W 052°42'0 0.0 330 / 141011.5 -5.6-6.0
2017-Jan-16 05:00N 47°36' W 052°42'0 0.0 340 / 111010.1 -4.6-4.9
2017-Jan-16 04:00N 47°36' W 052°42'0 0.0 060 / 21010.1 -3.8-4.0
2017-Jan-16 03:00N 47°36' W 052°42'0 0.0 080 / 41011.2 -3.0-3.2
2017-Jan-16 02:00N 47°36' W 052°42'0 0.0 070 / 31012.4 -3.4-3.8
2017-Jan-16 01:00N 47°36' W 052°42'0 0.0 030 / 31013.2 -4.1-5.1
2017-Jan-16 00:00N 47°36' W 052°42'0 0.0 360 / 31014.7 -4.7-5.8
2017-Jan-15 23:00N 47°36' W 052°42'0 0.0 240 / 11015.6 -4.6-6.0
2017-Jan-15 22:00N 47°36' W 052°42'0 0.0 240 / 21016.1 -4.5-6.6
2017-Jan-15 21:00N 47°36' W 052°42'0 0.0 200 / 11016.4 -4.1-6.7
2017-Jan-15 20:00N 47°36' W 052°42'0 0.0 200 / 31016.3 -3.7-6.7
2017-Jan-15 19:00N 47°36' W 052°42'0 0.0 190 / 31016.6 -4.0-6.9
2017-Jan-15 18:00N 47°36' W 052°42'0 0.0 220 / 71016.6 -3.9-8.8
2017-Jan-15 17:00N 47°36' W 052°42'0 0.0 190 / 61016.8 -3.8-7.8
2017-Jan-15 16:00N 47°36' W 052°42'0 0.0 210 / 31017.9 -4.8-8.0
2017-Jan-15 15:00N 47°36' W 052°42'0 0.0 130 / 21019.0 -5.4-10.3
2017-Jan-15 14:00N 47°36' W 052°42'0 0.0 200 / 21020.3 -7.0-12.5
2017-Jan-15 13:00N 47°36' W 052°42'0 0.0 220 / 31020.7 -8.2-12.6
2017-Jan-15 11:00N 47°36' W 052°42'0 0.0 220 / 31020.7 -8.4-12.7
2017-Jan-15 10:00N 47°36' W 052°42'0 0.0 210 / 31020.7 -8.4-12.8
2017-Jan-15 09:00N 47°36' W 052°42'0 0.0 240 / 51020.5 -9.0-13.2
2017-Jan-15 08:00N 47°36' W 052°42'0 0.0 240 / 41020.4 -8.6-13.1
2017-Jan-15 07:00N 47°36' W 052°42'0 0.0 240 / 41020.1 -8.6-13.9
2017-Jan-15 06:00N 47°36' W 052°42'0 0.0 260 / 61020.3 -8.7-14.3
2017-Jan-15 05:00N 47°36' W 052°42'0 0.0 270 / 51020.1 -9.5-15.8
2017-Jan-15 04:00N 47°36' W 052°42'0 0.0 260 / 91020.1 -9.5-15.7
2017-Jan-15 03:00N 47°36' W 052°42'0 0.0 280 / 101020.1 -9.8-16.4
2017-Jan-15 02:00N 47°36' W 052°42'0 0.0 280 / 101020.2 -10.4-17.0
2017-Jan-15 01:00N 47°36' W 052°42'0 0.0 280 / 81019.8 -10.5-17.2
2017-Jan-15 00:00N 47°36' W 052°42'0 0.0 280 / 121019.1 -10.5-17.6
2017-Jan-14 23:00N 47°36' W 052°42'0 0.0 270 / 111018.8 -9.9-16.8
2017-Jan-14 22:00N 47°36' W 052°42'0 0.0 260 / 91018.1 -10.0-16.9
2017-Jan-14 21:00N 47°36' W 052°42'0 0.0 290 / 101017.4 -9.6-17.3
2017-Jan-14 20:00N 47°36' W 052°42'0 0.0 270 / 101016.5 -9.1-17.2
2017-Jan-14 19:00N 47°36' W 052°42'0 0.0 270 / 111015.7 -8.5-16.7
2017-Jan-14 18:00N 47°36' W 052°42'   290 / 131015.0 -8.7-16.7

Dump ship's entire track history